Time;durP1;ratioP1;P1;durP2;ratioP2;P2;SDS_P1;SDS_P2;PMS_P1;PMS_P2;Temp;Humidity;BMP_temperature;BMP_pressure;BME280_temperature;BME280_humidity;BME280_pressure;Samples;Min_cycle;Max_cycle;Signal;HPM_P1;HPM_P2
2022/01/31 00:00:52;;;;;;;16.42;4.85;;;5.70;99.90;;;;;;5079223;28;20424;-66
2022/01/31 00:03:18;;;;;;;18.00;6.00;;;5.70;99.90;;;;;;5079203;28;20103;-67
2022/01/31 00:05:44;;;;;;;22.48;5.93;;;5.70;99.90;;;;;;5078469;28;20040;-68
2022/01/31 00:08:10;;;;;;;24.70;5.88;;;5.80;99.90;;;;;;5079072;28;20345;-63
2022/01/31 00:10:36;;;;;;;22.35;5.15;;;5.80;99.90;;;;;;5079127;28;20035;-64
2022/01/31 00:15:28;;;;;;;20.48;5.72;;;5.80;99.90;;;;;;5078273;28;20032;-64
2022/01/31 00:17:54;;;;;;;21.17;5.20;;;5.80;99.90;;;;;;5079017;28;20308;-66
2022/01/31 00:20:20;;;;;;;16.65;4.95;;;5.80;99.90;;;;;;5078965;28;20036;-67
2022/01/31 00:22:46;;;;;;;14.05;4.40;;;5.80;99.90;;;;;;5078983;28;20039;-65
2022/01/31 00:25:13;;;;;;;15.35;4.45;;;6.00;99.90;;;;;;5078680;28;20025;-63
2022/01/31 00:27:39;;;;;;;16.67;5.00;;;5.90;99.90;;;;;;5078674;28;20406;-63
2022/01/31 00:30:06;;;;;;;14.77;3.97;;;5.90;99.90;;;;;;5079293;28;20268;-67
2022/01/31 00:32:32;;;;;;;15.90;4.80;;;5.90;99.90;;;;;;5078629;28;20036;-64
2022/01/31 00:34:59;;;;;;;18.38;4.50;;;5.90;99.90;;;;;;5078459;28;20041;-62
2022/01/31 00:37:25;;;;;;;20.95;5.18;;;5.90;99.90;;;;;;5078537;28;20098;-63
2022/01/31 00:39:51;;;;;;;17.88;4.40;;;5.90;99.90;;;;;;5078477;28;20064;-65
2022/01/31 00:42:19;;;;;;;24.30;4.07;;;5.90;99.90;;;;;;5061204;28;20079;-62
2022/01/31 00:44:52;;;;;;;18.20;4.35;;;5.90;99.90;;;;;;5078484;28;20031;-62
2022/01/31 00:47:26;;;;;;;;;;;5.90;99.90;;;;;;5078018;28;20029;-63
2022/01/31 00:52:30;;;;;;;17.05;3.67;;;6.00;99.90;;;;;;5078628;28;20032;-64
2022/01/31 00:54:56;;;;;;;17.50;4.22;;;5.90;99.90;;;;;;5077565;28;20032;-67
2022/01/31 00:57:22;;;;;;;17.10;3.65;;;6.10;99.90;;;;;;5078137;28;20036;-67
2022/01/31 00:59:50;;;;;;;19.48;4.05;;;6.00;99.90;;;;;;5077400;28;20427;-69
2022/01/31 01:02:18;;;;;;;19.08;5.28;;;6.10;99.90;;;;;;5061298;28;20093;-65
2022/01/31 01:04:45;;;;;;;17.00;4.93;;;6.00;99.90;;;;;;5077318;28;20296;-63
2022/01/31 01:07:11;;;;;;;22.20;4.43;;;5.90;99.90;;;;;;5060732;28;20032;-62
2022/01/31 01:09:37;;;;;;;15.70;4.60;;;5.80;99.90;;;;;;5078087;28;20052;-62
2022/01/31 01:12:04;;;;;;;23.35;4.85;;;5.70;99.90;;;;;;5077173;28;20091;-61
2022/01/31 01:14:30;;;;;;;17.52;3.80;;;5.70;99.90;;;;;;5077093;28;20051;-61
2022/01/31 01:16:56;;;;;;;17.90;4.43;;;5.60;99.90;;;;;;5077131;28;20036;-60
2022/01/31 01:19:23;;;;;;;20.77;4.15;;;5.70;99.90;;;;;;5076927;28;20040;-59
2022/01/31 01:21:49;;;;;;;17.55;4.53;;;5.70;99.90;;;;;;5060433;28;20033;-59
2022/01/31 01:24:16;;;;;;;25.25;4.60;;;5.60;99.90;;;;;;5076895;28;20093;-58
2022/01/31 01:26:43;;;;;;;19.55;5.00;;;5.60;99.90;;;;;;5077604;28;20387;-59
2022/01/31 01:29:10;;;;;;;18.63;4.57;;;5.60;99.90;;;;;;5076824;28;20043;-59
2022/01/31 01:31:36;;;;;;;14.63;4.22;;;5.70;99.90;;;;;;5076773;28;20123;-62
2022/01/31 01:34:02;;;;;;;19.27;4.25;;;5.70;99.90;;;;;;5076730;28;20040;-60
2022/01/31 01:36:31;;;;;;;18.25;4.40;;;5.70;99.90;;;;;;5076474;28;20060;-59
2022/01/31 01:38:57;;;;;;;17.85;4.93;;;5.80;99.90;;;;;;5076884;28;20068;-59
2022/01/31 01:41:23;;;;;;;17.63;4.32;;;5.80;99.90;;;;;;5076555;28;20059;-59
2022/01/31 01:43:49;;;;;;;18.05;4.80;;;5.80;99.90;;;;;;5077318;28;20112;-59
2022/01/31 01:46:15;;;;;;;26.45;5.03;;;5.80;99.90;;;;;;5076618;28;20036;-59
2022/01/31 01:48:42;;;;;;;18.52;4.32;;;5.80;99.90;;;;;;5076762;28;20360;-60
2022/01/31 01:51:12;;;;;;;21.27;4.78;;;5.90;99.90;;;;;;5076485;28;20315;-61
2022/01/31 01:53:38;;;;;;;17.25;4.55;;;6.00;99.90;;;;;;5076438;28;20357;-61
2022/01/31 01:56:04;;;;;;;22.27;5.43;;;6.10;99.90;;;;;;5077819;28;20048;-61
2022/01/31 01:58:38;;;;;;;10.77;4.00;;;6.20;99.90;;;;;;5076271;28;20052;-61
2022/01/31 02:01:05;;;;;;;15.63;4.65;;;6.20;99.90;;;;;;5076515;28;20094;-61
2022/01/31 02:03:44;;;;;;;15.88;4.60;;;6.20;99.90;;;;;;5076174;28;20108;-60
2022/01/31 02:06:10;;;;;;;18.15;4.35;;;6.10;99.90;;;;;;5076155;28;20028;-61
2022/01/31 02:08:40;;;;;;;17.17;4.22;;;6.00;99.90;;;;;;5059632;28;20444;-61
2022/01/31 02:11:09;;;;;;;17.35;4.68;;;6.10;99.90;;;;;;5060483;28;20063;-62
2022/01/31 02:13:43;;;;;;;15.80;4.82;;;6.10;99.90;;;;;;5076197;28;20321;-60
2022/01/31 02:16:17;;;;;;;12.88;4.53;;;6.20;99.90;;;;;;5076267;28;20079;-62
2022/01/31 02:18:54;;;;;;;13.38;3.92;;;6.20;99.90;;;;;;5075868;28;20438;-61
2022/01/31 02:21:41;;;;;;;13.35;4.22;;;6.00;99.90;;;;;;5076864;28;20331;-62
2022/01/31 02:24:26;;;;;;;12.52;3.92;;;6.20;99.90;;;;;;5076790;28;20093;-62
2022/01/31 02:27:10;;;;;;;12.73;4.32;;;6.30;99.90;;;;;;5077130;28;20047;-65
2022/01/31 02:29:36;;;;;;;15.52;4.75;;;6.30;99.90;;;;;;5076071;28;20036;-65
2022/01/31 02:32:02;;;;;;;10.30;4.22;;;6.30;99.90;;;;;;5077360;28;20111;-65
2022/01/31 02:34:28;;;;;;;10.60;4.18;;;6.30;99.90;;;;;;5075742;28;20039;-64
2022/01/31 02:36:54;;;;;;;12.57;4.57;;;6.50;99.90;;;;;;5059375;28;20032;-63
2022/01/31 02:39:19;;;;;;;12.88;4.93;;;6.60;99.90;;;;;;5075817;28;20064;-60
2022/01/31 02:41:46;;;;;;;11.10;5.15;;;6.70;99.90;;;;;;5076180;28;20078;-63
2022/01/31 02:44:15;;;;;;;9.57;4.90;;;6.80;99.90;;;;;;5075865;28;20044;-64
2022/01/31 02:46:57;;;;;;;12.52;6.10;;;6.70;99.90;;;;;;5076087;28;20028;-63
2022/01/31 02:49:27;;;;;;;17.63;6.85;;;6.80;99.90;;;;;;5078203;28;20033;-64
2022/01/31 02:52:00;;;;;;;19.90;7.40;;;7.00;99.90;;;;;;5080722;28;20033;-64
2022/01/31 02:54:29;;;;;;;17.27;6.78;;;7.00;99.90;;;;;;5079987;28;20036;-64
2022/01/31 02:56:55;;;;;;;16.63;7.20;;;7.10;99.90;;;;;;5080507;28;20044;-63
2022/01/31 02:59:21;;;;;;;19.63;6.85;;;7.20;99.90;;;;;;5079601;28;20047;-63
2022/01/31 03:01:47;;;;;;;24.25;7.10;;;7.20;99.90;;;;;;5080448;28;20115;-63
2022/01/31 03:04:13;;;;;;;20.15;7.30;;;7.30;99.90;;;;;;5079728;28;20051;-63
2022/01/31 03:06:43;;;;;;;25.40;6.95;;;7.30;99.90;;;;;;5080471;28;20029;-67
2022/01/31 03:09:09;;;;;;;21.88;5.90;;;7.40;99.90;;;;;;5079643;28;20264;-64
2022/01/31 03:11:39;;;;;;;14.75;5.88;;;7.30;99.90;;;;;;5079722;28;20028;-64
2022/01/31 03:14:09;;;;;;;19.05;4.40;;;7.30;99.90;;;;;;5079440;28;20029;-62
2022/01/31 03:16:40;;;;;;;14.90;2.95;;;7.40;99.90;;;;;;5079631;28;20277;-62
2022/01/31 03:19:29;;;;;;;14.93;2.92;;;7.40;99.90;;;;;;5080122;28;20041;-64
2022/01/31 03:22:00;;;;;;;16.35;2.65;;;7.40;99.90;;;;;;5079313;28;20408;-62
2022/01/31 03:24:26;;;;;;;14.07;2.67;;;7.30;99.90;;;;;;5079991;28;20051;-63
2022/01/31 03:26:52;;;;;;;16.65;2.67;;;7.30;99.90;;;;;;5080043;28;20055;-64
2022/01/31 03:29:17;;;;;;;14.35;2.42;;;7.30;99.90;;;;;;5079154;28;20033;-64
2022/01/31 03:31:43;;;;;;;12.68;2.42;;;7.30;99.90;;;;;;5080022;28;20029;-65
2022/01/31 03:34:09;;;;;;;10.77;2.15;;;7.40;99.90;;;;;;5078992;28;20412;-65
2022/01/31 03:36:35;;;;;;;15.90;3.00;;;7.40;99.90;;;;;;5079707;28;20044;-65
2022/01/31 03:39:02;;;;;;;14.38;2.90;;;7.40;99.90;;;;;;5078833;28;20404;-66
2022/01/31 03:41:30;;;;;;;15.10;3.08;;;7.40;99.90;;;;;;5078969;28;20094;-63
2022/01/31 03:43:56;;;;;;;11.63;2.47;;;7.40;99.90;;;;;;5078755;28;20040;-65
2022/01/31 03:46:23;;;;;;;14.75;2.38;;;7.40;99.90;;;;;;5078726;28;20055;-66
2022/01/31 03:48:49;;;;;;;10.88;2.38;;;7.50;99.90;;;;;;5078750;28;20038;-66
2022/01/31 03:51:53;;;;;;;14.32;2.78;;;7.40;99.90;;;;;;5073749;28;20032;-64
2022/01/31 03:54:28;;;;;;;14.10;2.47;;;7.50;99.90;;;;;;5078642;28;20304;-64
2022/01/31 03:56:54;;;;;;;11.88;2.10;;;7.40;99.90;;;;;;5078746;28;20033;-65
2022/01/31 03:59:36;;;;;;;11.35;2.20;;;7.40;99.90;;;;;;5078622;28;20033;-65
2022/01/31 04:02:06;;;;;;;16.15;2.55;;;7.40;99.90;;;;;;5078008;28;20028;-62
2022/01/31 04:04:32;;;;;;;11.25;1.88;;;7.40;99.90;;;;;;5079594;28;20036;-63
2022/01/31 04:06:58;;;;;;;12.55;2.38;;;7.30;99.90;;;;;;5079601;28;20048;-61
2022/01/31 04:09:26;;;;;;;17.13;2.38;;;7.20;99.90;;;;;;5079496;28;20028;-63
2022/01/31 04:11:52;;;;;;;12.50;2.00;;;7.20;99.90;;;;;;5079182;28;20040;-61
2022/01/31 04:14:17;;;;;;;13.40;2.28;;;7.20;99.90;;;;;;5079378;28;20056;-60
2022/01/31 04:16:43;;;;;;;12.30;2.20;;;7.20;99.90;;;;;;5078415;28;20047;-64
2022/01/31 04:19:09;;;;;;;12.55;2.03;;;7.10;99.90;;;;;;5079338;28;20048;-64
2022/01/31 04:21:35;;;;;;;11.13;1.88;;;7.10;99.90;;;;;;5078618;28;20056;-64
2022/01/31 04:24:00;;;;;;;12.38;1.80;;;7.20;99.90;;;;;;5079205;28;20439;-64
2022/01/31 04:26:33;;;;;;;10.07;2.13;;;7.20;99.90;;;;;;5078457;28;20044;-64
2022/01/31 04:29:06;;;;;;;9.80;1.85;;;7.20;99.90;;;;;;5079244;28;20047;-68
2022/01/31 04:31:40;;;;;;;11.70;1.80;;;7.20;99.90;;;;;;5078576;28;20033;-63
2022/01/31 04:34:07;;;;;;;13.25;2.08;;;7.30;99.90;;;;;;5078836;28;20031;-65
2022/01/31 04:36:33;;;;;;;18.98;2.83;;;7.30;99.90;;;;;;5078570;28;20387;-65
2022/01/31 04:38:59;;;;;;;18.48;2.60;;;7.40;99.90;;;;;;5078924;28;20033;-66
2022/01/31 04:41:25;;;;;;;13.23;2.05;;;7.30;99.90;;;;;;5078058;28;20408;-64
2022/01/31 04:43:52;;;;;;;13.27;2.08;;;7.30;99.90;;;;;;5078874;28;20064;-64
2022/01/31 04:46:19;;;;;;;10.27;1.80;;;7.30;99.90;;;;;;5078559;28;20040;-63
2022/01/31 04:48:45;;;;;;;13.30;2.08;;;7.30;99.90;;;;;;5078724;28;20115;-64
2022/01/31 04:51:12;;;;;;;11.55;1.77;;;7.30;99.90;;;;;;5078857;28;20128;-63
2022/01/31 04:53:38;;;;;;;12.70;2.22;;;7.40;99.90;;;;;;5078542;28;20127;-64
2022/01/31 04:56:04;;;;;;;13.05;2.10;;;7.30;99.90;;;;;;5078313;28;20128;-64
2022/01/31 04:58:32;;;;;;;11.25;2.13;;;7.30;99.90;;;;;;5078524;28;20052;-66
2022/01/31 05:00:58;;;;;;;13.40;1.85;;;7.30;99.90;;;;;;5078429;28;20037;-64
2022/01/31 05:03:23;;;;;;;17.73;1.85;;;7.40;99.90;;;;;;5078640;28;20032;-67
2022/01/31 05:05:49;;;;;;;10.50;1.88;;;7.50;99.90;;;;;;5077782;28;20372;-66
2022/01/31 05:08:17;;;;;;;14.32;1.80;;;7.40;99.90;;;;;;5077345;28;20301;-65
2022/01/31 05:10:45;;;;;;;13.80;2.15;;;7.50;99.90;;;;;;5077974;28;20060;-65
2022/01/31 05:13:13;;;;;;;14.35;2.35;;;7.50;99.90;;;;;;5077011;28;20040;-66
2022/01/31 05:15:39;;;;;;;13.10;2.63;;;7.50;99.90;;;;;;5078162;28;20039;-63
2022/01/31 05:18:05;;;;;;;18.38;3.00;;;7.60;99.90;;;;;;5078173;28;20044;-65
2022/01/31 05:20:31;;;;;;;16.75;2.60;;;7.60;99.90;;;;;;5077773;28;20040;-64
2022/01/31 05:22:57;;;;;;;20.40;2.53;;;7.70;99.90;;;;;;5077813;28;20040;-64
2022/01/31 05:25:23;;;;;;;18.40;2.08;;;7.70;99.90;;;;;;5078009;28;20056;-64
2022/01/31 05:27:48;;;;;;;14.23;2.00;;;7.70;99.90;;;;;;5078334;28;20036;-66
2022/01/31 05:30:16;;;;;;;17.23;2.25;;;7.70;99.90;;;;;;5077415;28;20307;-63
2022/01/31 05:32:45;;;;;;;12.43;2.20;;;7.80;99.90;;;;;;5077907;28;20415;-64
2022/01/31 05:35:11;;;;;;;15.13;2.13;;;7.70;99.90;;;;;;5077748;28;20056;-67
2022/01/31 05:37:37;;;;;;;12.88;2.10;;;7.80;99.90;;;;;;5077573;28;20452;-66
2022/01/31 05:40:04;;;;;;;15.57;2.60;;;7.80;99.90;;;;;;5077260;28;20123;-65
2022/01/31 05:42:30;;;;;;;12.23;1.75;;;7.80;99.90;;;;;;5077812;28;20036;-64
2022/01/31 05:44:56;;;;;;;18.45;2.47;;;7.70;99.90;;;;;;5077924;28;20044;-65
2022/01/31 05:47:22;;;;;;;14.32;1.85;;;7.80;99.90;;;;;;5077380;28;20047;-67
2022/01/31 05:49:48;;;;;;;12.65;2.17;;;7.70;99.90;;;;;;5076715;28;20033;-64
2022/01/31 05:52:14;;;;;;;15.15;2.42;;;7.90;99.90;;;;;;5077659;28;20376;-65
2022/01/31 05:54:41;;;;;;;13.77;2.13;;;7.90;99.90;;;;;;5076891;28;20120;-63
2022/01/31 05:57:08;;;;;;;15.63;2.53;;;7.80;99.90;;;;;;5077381;28;20119;-64
2022/01/31 05:59:35;;;;;;;18.52;2.70;;;7.80;99.90;;;;;;5077423;28;20044;-64
2022/01/31 06:02:01;;;;;;;12.50;2.55;;;7.80;99.90;;;;;;5077449;28;20437;-63
2022/01/31 06:04:28;;;;;;;18.02;1.92;;;7.80;99.90;;;;;;5077069;28;20105;-68
2022/01/31 06:06:54;;;;;;;12.30;2.55;;;7.90;99.90;;;;;;5076981;28;20082;-65
2022/01/31 06:09:20;;;;;;;12.30;2.10;;;7.90;99.90;;;;;;5076358;28;20422;-66
2022/01/31 06:11:49;;;;;;;13.07;2.17;;;7.80;99.90;;;;;;5059641;28;20145;-66
2022/01/31 06:14:17;;;;;;;17.38;2.10;;;7.90;99.90;;;;;;5076254;28;20142;-63
2022/01/31 06:16:43;;;;;;;9.85;1.77;;;7.90;99.90;;;;;;5076921;28;20043;-65
2022/01/31 06:19:09;;;;;;;16.40;2.33;;;7.80;99.90;;;;;;5076861;28;20126;-67
2022/01/31 06:21:35;;;;;;;15.45;2.47;;;7.80;99.90;;;;;;5076248;28;20025;-66
2022/01/31 06:24:01;;;;;;;17.58;2.53;;;7.80;99.90;;;;;;5075787;28;20033;-67
2022/01/31 06:26:28;;;;;;;19.45;2.70;;;8.00;99.90;;;;;;5076146;28;20056;-65
2022/01/31 06:29:11;;;;;;;12.07;1.88;;;7.90;99.90;;;;;;5076047;28;20043;-65
2022/01/31 06:31:43;;;;;;;10.32;1.88;;;7.80;99.90;;;;;;5075971;28;20094;-65
2022/01/31 06:34:09;;;;;;;10.85;1.80;;;7.80;99.90;;;;;;5076677;28;20052;-66
2022/01/31 06:36:34;;;;;;;13.38;2.17;;;7.80;99.90;;;;;;5075999;28;20469;-67
2022/01/31 06:39:00;;;;;;;10.85;1.83;;;7.80;99.90;;;;;;5076676;28;20048;-66
2022/01/31 06:41:27;;;;;;;13.73;2.33;;;7.80;99.90;;;;;;5076654;28;20328;-67
2022/01/31 06:43:53;;;;;;;12.25;2.13;;;7.80;99.90;;;;;;5075842;28;20090;-64
2022/01/31 06:46:19;;;;;;;16.02;2.35;;;7.80;99.90;;;;;;5076108;28;20025;-69
2022/01/31 06:48:45;;;;;;;14.65;2.22;;;7.80;99.90;;;;;;5075903;28;20059;-66
2022/01/31 06:51:10;;;;;;;9.50;1.80;;;7.90;99.90;;;;;;5077223;28;20384;-64
2022/01/31 06:53:37;;;;;;;12.48;2.08;;;7.90;99.90;;;;;;5076768;28;20024;-65
2022/01/31 06:56:03;;;;;;;9.98;1.83;;;7.90;99.90;;;;;;5075923;28;20032;-63
2022/01/31 06:58:29;;;;;;;10.88;1.85;;;7.90;99.90;;;;;;5076397;28;20047;-64
2022/01/31 07:00:56;;;;;;;15.23;2.28;;;7.90;99.90;;;;;;5075727;28;20029;-64
2022/01/31 07:03:22;;;;;;;11.13;2.83;;;7.90;99.90;;;;;;5076750;28;20043;-66
2022/01/31 07:05:48;;;;;;;12.75;3.40;;;7.90;99.90;;;;;;5076434;28;20376;-66
2022/01/31 07:08:15;;;;;;;13.70;1.85;;;7.90;99.90;;;;;;5076393;28;20032;-66
2022/01/31 07:10:49;;;;;;;17.17;3.05;;;7.90;99.90;;;;;;5076018;28;20485;-64
2022/01/31 07:13:25;;;;;;;19.67;3.20;;;7.90;99.90;;;;;;5075468;28;20052;-65
2022/01/31 07:15:51;;;;;;;13.50;2.45;;;7.90;99.90;;;;;;5076352;28;20043;-65
2022/01/31 07:18:17;;;;;;;13.15;2.47;;;8.00;99.90;;;;;;5076250;28;20044;-66
2022/01/31 07:20:46;;;;;;;12.82;2.03;;;7.90;99.90;;;;;;5075532;28;20067;-67
2022/01/31 07:23:26;;;;;;;16.85;2.20;;;7.90;99.90;;;;;;5075442;28;20304;-68
2022/01/31 07:25:51;;;;;;;12.93;2.20;;;8.00;99.90;;;;;;5076237;28;20110;-67
2022/01/31 07:28:17;;;;;;;19.92;2.63;;;7.90;99.90;;;;;;5076189;28;20032;-66
2022/01/31 07:30:47;;;;;;;15.43;2.13;;;7.90;99.90;;;;;;5076150;28;20359;-65
2022/01/31 07:33:13;;;;;;;13.80;1.77;;;7.90;99.90;;;;;;5076209;28;20093;-66
2022/01/31 07:35:43;;;;;;;15.80;2.15;;;7.90;99.90;;;;;;5076971;28;20106;-66
2022/01/31 07:38:13;;;;;;;15.90;2.28;;;7.90;99.90;;;;;;5079114;28;20040;-68
2022/01/31 07:40:39;;;;;;;10.65;1.95;;;7.90;99.90;;;;;;5078878;28;20032;-67
2022/01/31 07:43:05;;;;;;;12.80;2.20;;;8.00;99.90;;;;;;5079705;28;20020;-68
2022/01/31 07:45:32;;;;;;;14.07;1.75;;;8.00;99.90;;;;;;5078801;28;20082;-67
2022/01/31 07:47:58;;;;;;;16.25;2.42;;;8.00;99.90;;;;;;5078914;28;20339;-66
2022/01/31 07:50:24;;;;;;;13.38;1.95;;;8.00;99.90;;;;;;5079617;28;20097;-69
2022/01/31 07:52:50;;;;;;;10.60;2.45;;;8.00;99.90;;;;;;5078759;28;20059;-66
2022/01/31 07:55:16;;;;;;;16.42;2.03;;;7.90;99.90;;;;;;5079656;28;20033;-65
2022/01/31 07:57:45;;;;;;;10.32;1.88;;;8.00;99.90;;;;;;5078766;28;20063;-63
2022/01/31 08:00:12;;;;;;;12.75;2.03;;;8.00;99.90;;;;;;5079360;28;20036;-67
2022/01/31 08:02:42;;;;;;;13.57;2.33;;;7.90;99.90;;;;;;5079745;28;20040;-62
2022/01/31 08:05:08;;;;;;;13.80;2.13;;;7.90;99.90;;;;;;5079379;28;20121;-65
2022/01/31 08:07:35;;;;;;;9.68;2.10;;;7.90;99.90;;;;;;5079119;28;20051;-64
2022/01/31 08:10:02;;;;;;;7.78;2.00;;;7.90;99.90;;;;;;5079517;28;20393;-64
2022/01/31 08:12:28;;;;;;;8.32;1.63;;;7.90;99.90;;;;;;5079211;28;20037;-65
2022/01/31 08:15:01;;;;;;;17.13;2.40;;;7.90;99.90;;;;;;5079173;28;20043;-65
2022/01/31 08:17:26;;;;;;;18.33;2.05;;;8.00;99.90;;;;;;5079140;28;20047;-65
2022/01/31 08:19:52;;;;;;;15.50;2.00;;;7.90;99.90;;;;;;5079053;28;20471;-65
2022/01/31 08:22:18;;;;;;;15.48;2.53;;;7.80;99.90;;;;;;5078301;28;20031;-62
2022/01/31 08:24:44;;;;;;;14.88;2.75;;;7.80;99.90;;;;;;5079058;28;20086;-63
2022/01/31 08:27:10;;;;;;;15.75;2.25;;;7.90;99.90;;;;;;5078806;28;20063;-63
2022/01/31 08:29:38;;;;;;;12.40;1.92;;;7.90;99.90;;;;;;5078117;28;20400;-64
2022/01/31 08:32:16;;;;;;;16.38;2.28;;;7.90;99.90;;;;;;5079005;28;20029;-64
2022/01/31 08:37:27;;;;;;;11.30;2.28;;;7.90;99.90;;;;;;5079202;28;20127;-63
2022/01/31 08:39:53;;;;;;;14.77;1.77;;;7.90;99.90;;;;;;5077859;28;20102;-62
2022/01/31 08:42:20;;;;;;;16.85;2.53;;;7.90;99.90;;;;;;5078733;28;20040;-60
2022/01/31 08:44:49;;;;;;;15.35;2.35;;;7.90;99.90;;;;;;5077920;28;20016;-64
2022/01/31 08:47:18;;;;;;;12.23;2.33;;;7.90;99.90;;;;;;5079005;28;20101;-63
2022/01/31 08:49:44;;;;;;;13.52;2.53;;;7.90;99.90;;;;;;5077874;28;20086;-66
2022/01/31 08:52:10;;;;;;;14.65;2.85;;;7.90;99.90;;;;;;5078596;28;20097;-66
2022/01/31 08:54:36;;;;;;;13.45;2.60;;;7.80;99.90;;;;;;5077667;28;20025;-64
2022/01/31 08:57:02;;;;;;;10.85;1.92;;;7.90;99.90;;;;;;5077657;28;20123;-65
2022/01/31 08:59:29;;;;;;;11.50;2.55;;;7.90;99.90;;;;;;5078210;28;20079;-65
2022/01/31 09:02:05;;;;;;;10.00;1.80;;;8.00;99.90;;;;;;5078326;28;20394;-66
2022/01/31 09:04:47;;;;;;;14.85;2.33;;;8.00;99.90;;;;;;5077593;28;20033;-67
2022/01/31 09:07:14;;;;;;;9.30;1.87;;;8.10;99.90;;;;;;5078679;28;20037;-63
2022/01/31 09:09:41;;;;;;;14.75;2.58;;;8.10;99.90;;;;;;5077584;28;20047;-65
2022/01/31 09:12:09;;;;;;;17.00;2.60;;;8.20;99.90;;;;;;5077893;28;20033;-63
2022/01/31 09:14:37;;;;;;;17.67;2.28;;;8.00;99.90;;;;;;5078012;28;20067;-65
2022/01/31 09:17:04;;;;;;;17.70;2.70;;;7.90;99.90;;;;;;5077989;28;20383;-67
2022/01/31 09:19:29;;;;;;;15.10;2.85;;;8.00;99.90;;;;;;5077953;28;20024;-64
2022/01/31 09:21:55;;;;;;;13.90;2.20;;;8.10;99.90;;;;;;5077824;28;20107;-63
2022/01/31 09:24:21;;;;;;;10.63;1.80;;;8.10;99.90;;;;;;5077110;28;20059;-66
2022/01/31 09:26:47;;;;;;;13.57;2.05;;;7.80;99.90;;;;;;5078325;28;20086;-65
2022/01/31 09:29:13;;;;;;;17.88;2.60;;;7.50;99.90;;;;;;5076947;28;20040;-65
2022/01/31 09:31:39;;;;;;;18.88;2.80;;;7.30;99.90;;;;;;5078058;28;20028;-63
2022/01/31 09:34:06;;;;;;;13.55;2.42;;;7.20;99.90;;;;;;5077613;28;20099;-66
2022/01/31 09:36:33;;;;;;;17.83;2.90;;;7.30;99.90;;;;;;5077468;28;20469;-63
2022/01/31 09:38:59;;;;;;;19.98;2.95;;;7.30;99.90;;;;;;5077601;28;20037;-64
2022/01/31 09:41:27;;;;;;;15.30;2.72;;;7.40;99.90;;;;;;5060264;28;20035;-63
2022/01/31 09:44:10;;;;;;;20.15;3.30;;;7.50;99.90;;;;;;5076772;28;20040;-64
2022/01/31 09:49:11;;;;;;;16.90;2.47;;;7.90;99.90;;;;;;5077359;28;20029;-61
2022/01/31 09:51:36;;;;;;;14.13;2.45;;;8.10;99.90;;;;;;5077385;28;20427;-62
2022/01/31 09:54:04;;;;;;;9.90;2.13;;;8.10;99.90;;;;;;5076510;28;20024;-62
2022/01/31 09:56:33;;;;;;;15.40;2.08;;;8.10;99.90;;;;;;5077253;28;20298;-64
2022/01/31 09:59:01;;;;;;;13.57;2.10;;;8.30;99.90;;;;;;5076012;28;20078;-62
2022/01/31 10:01:30;;;;;;;18.48;2.88;;;8.20;99.90;;;;;;5076678;28;20497;-65
2022/01/31 10:04:01;;;;;;;10.93;2.67;;;8.30;99.90;;;;;;5077101;28;20362;-64
2022/01/31 10:06:30;;;;;;;17.23;3.30;;;8.30;99.90;;;;;;5077220;28;20042;-63
2022/01/31 10:09:06;;;;;;;17.45;2.38;;;8.20;99.90;;;;;;5076991;28;20020;-66
2022/01/31 10:11:50;;;;;;;21.05;2.75;;;8.30;99.90;;;;;;5076307;28;20024;-63
2022/01/31 10:17:22;;;;;;;17.58;2.97;;;8.50;99.90;;;;;;5077300;28;20036;-65
2022/01/31 10:19:48;;;;;;;18.75;2.60;;;8.40;99.90;;;;;;5077478;28;20120;-63
2022/01/31 10:22:16;;;;;;;18.73;2.45;;;8.40;99.90;;;;;;5076191;28;20028;-63
2022/01/31 10:24:45;;;;;;;17.92;2.92;;;8.50;99.90;;;;;;5076116;28;20097;-64
2022/01/31 10:27:21;;;;;;;20.55;3.25;;;8.50;99.90;;;;;;5076882;28;20032;-64
2022/01/31 10:29:48;;;;;;;17.02;2.95;;;8.50;99.90;;;;;;5076881;28;20037;-64
2022/01/31 10:32:32;;;;;;;19.52;4.03;;;8.60;99.90;;;;;;5076522;28;20115;-61
2022/01/31 10:35:01;;;;;;;15.90;2.85;;;8.30;99.90;;;;;;5076594;28;20040;-61
2022/01/31 10:37:30;;;;;;;10.80;2.30;;;7.50;99.90;;;;;;5077236;28;20090;-63
2022/01/31 10:53:43;;;;;;;25.40;3.07;;;6.40;99.90;;;;;;5076635;28;20097;-61
2022/01/31 10:56:09;;;;;;;19.75;3.05;;;6.40;99.90;;;;;;5076740;28;20538;-63
2022/01/31 10:58:51;;;;;;;27.73;3.42;;;6.50;99.90;;;;;;5076638;28;20025;-61
2022/01/31 11:01:17;;;;;;;26.88;3.75;;;6.60;99.90;;;;;;5076468;28;20036;-61
2022/01/31 11:03:45;;;;;;;21.40;3.63;;;6.70;99.90;;;;;;5076458;28;20300;-61
2022/01/31 11:06:11;;;;;;;32.90;4.28;;;6.90;99.90;;;;;;5076486;28;20035;-61
2022/01/31 11:08:38;;;;;;;20.98;3.78;;;6.80;99.90;;;;;;5076449;28;20036;-63
2022/01/31 11:11:05;;;;;;;22.52;3.47;;;6.90;99.90;;;;;;5078821;28;20042;-62
2022/01/31 11:13:33;;;;;;;26.58;4.00;;;6.90;99.90;;;;;;5079481;28;20047;-62
2022/01/31 11:15:59;;;;;;;34.30;4.05;;;7.00;99.90;;;;;;5080356;28;20111;-62
2022/01/31 11:18:29;;;;;;;25.65;3.78;;;7.10;99.90;;;;;;5080297;28;20412;-61
2022/01/31 11:21:03;;;;;;;24.20;3.45;;;7.10;99.90;;;;;;5081080;28;20086;-64
2022/01/31 11:23:33;;;;;;;21.38;3.15;;;7.20;99.90;;;;;;5080213;28;20418;-64
2022/01/31 11:26:01;;;;;;;17.73;3.47;;;7.20;99.90;;;;;;5080365;28;20395;-65
2022/01/31 11:28:30;;;;;;;24.23;3.72;;;7.30;99.90;;;;;;5079375;28;20082;-61
2022/01/31 11:30:57;;;;;;;27.88;3.65;;;7.30;99.90;;;;;;5080214;28;20039;-62
2022/01/31 11:33:24;;;;;;;25.23;3.50;;;7.50;99.90;;;;;;5079990;28;20040;-64
2022/01/31 11:35:51;;;;;;;24.02;3.92;;;7.50;99.90;;;;;;5062859;28;20093;-64
2022/01/31 11:38:17;;;;;;;25.65;4.15;;;7.60;99.90;;;;;;5079969;28;20308;-66
2022/01/31 11:40:46;;;;;;;15.85;3.13;;;7.70;99.90;;;;;;5079784;28;20093;-63
2022/01/31 11:43:14;;;;;;;23.45;4.20;;;7.60;99.90;;;;;;5080052;28;20411;-62
2022/01/31 11:45:41;;;;;;;27.48;3.70;;;7.60;99.90;;;;;;5079015;28;20035;-62
2022/01/31 11:48:19;;;;;;;25.52;4.13;;;7.60;99.90;;;;;;5079796;28;20024;-63
2022/01/31 11:50:47;;;;;;;14.85;2.88;;;7.60;99.90;;;;;;5079766;28;20083;-62
2022/01/31 11:53:13;;;;;;;19.88;3.75;;;7.60;99.90;;;;;;5079656;28;20181;-65
2022/01/31 11:55:40;;;;;;;23.73;3.60;;;7.70;99.90;;;;;;5079484;28;20068;-61
2022/01/31 11:58:14;;;;;;;25.38;3.90;;;7.70;99.90;;;;;;5079848;28;20200;-65
2022/01/31 12:00:41;;;;;;;25.60;3.92;;;7.70;99.90;;;;;;5079517;28;20065;-62
2022/01/31 12:03:14;;;;;;;25.70;4.10;;;7.60;99.90;;;;;;5078675;28;20024;-65
2022/01/31 12:05:40;;;;;;;26.92;3.83;;;7.60;99.90;;;;;;5079450;28;20115;-64
2022/01/31 12:08:15;;;;;;;26.35;4.07;;;7.60;99.90;;;;;;5061998;28;20086;-62
2022/01/31 12:10:44;;;;;;;33.10;4.68;;;7.70;99.90;;;;;;5078698;28;20111;-64
2022/01/31 12:13:39;;;;;;;25.25;3.88;;;7.70;99.90;;;;;;5079286;28;20024;-63
2022/01/31 12:16:24;;;;;;;22.80;3.85;;;7.70;99.90;;;;;;5079227;28;20037;-61
2022/01/31 12:19:01;;;;;;;20.88;4.05;;;7.80;99.90;;;;;;5079227;28;20033;-63
2022/01/31 12:24:46;;;;;;;29.42;5.00;;;7.90;99.90;;;;;;5079087;28;20040;-61
2022/01/31 12:27:17;;;;;;;31.50;4.40;;;8.00;99.90;;;;;;5077189;28;20102;-65
2022/01/31 12:29:50;;;;;;;30.15;4.07;;;7.90;99.90;;;;;;5078527;28;20376;-63
2022/01/31 12:32:19;;;;;;;27.77;4.10;;;8.00;99.90;;;;;;5079454;28;20047;-61
2022/01/31 12:34:53;;;;;;;38.95;4.45;;;7.90;99.90;;;;;;5078721;28;20052;-62
2022/01/31 12:37:34;;;;;;;27.77;4.65;;;7.80;99.90;;;;;;5079346;28;20166;-63
2022/01/31 12:40:08;;;;;;;23.83;4.35;;;7.70;99.90;;;;;;5078973;28;20101;-65
2022/01/31 12:45:37;;;;;;;30.17;4.30;;;7.70;99.90;;;;;;5078872;28;20119;-61
2022/01/31 12:48:06;;;;;;;32.92;4.65;;;7.70;99.90;;;;;;5078639;28;20032;-64
2022/01/31 12:50:34;;;;;;;25.17;4.03;;;7.70;99.90;;;;;;5078768;28;20407;-64
2022/01/31 12:53:05;;;;;;;27.92;4.68;;;7.70;99.90;;;;;;5078499;28;20028;-63
2022/01/31 12:55:32;;;;;;;27.50;5.20;;;7.80;99.90;;;;;;5078475;28;20043;-65
2022/01/31 12:57:58;;;;;;;31.42;4.80;;;7.80;99.90;;;;;;5078381;28;20089;-64
2022/01/31 13:00:39;;;;;;;26.92;4.45;;;7.90;99.90;;;;;;5077464;28;20040;-66
2022/01/31 13:03:05;;;;;;;29.60;4.57;;;7.80;99.90;;;;;;5078574;28;20039;-65
2022/01/31 13:05:33;;;;;;;28.90;4.75;;;7.80;99.90;;;;;;5078297;28;20064;-64
2022/01/31 13:07:59;;;;;;;30.35;4.95;;;7.80;99.90;;;;;;5077523;28;20057;-63
2022/01/31 13:10:25;;;;;;;28.13;4.85;;;7.70;99.90;;;;;;5077353;28;20044;-65
2022/01/31 13:13:01;;;;;;;37.17;5.82;;;7.70;99.90;;;;;;5078095;28;20016;-63
2022/01/31 13:15:27;;;;;;;33.05;5.43;;;7.80;99.90;;;;;;5078085;28;20039;-64
2022/01/31 13:18:24;;;;;;;28.35;4.45;;;7.90;99.90;;;;;;5077968;28;20029;-66
2022/01/31 13:20:52;;;;;;;38.33;5.10;;;7.80;99.90;;;;;;5077748;28;20052;-65
2022/01/31 13:23:18;;;;;;;24.67;4.43;;;7.80;99.90;;;;;;5077940;28;20300;-65
2022/01/31 13:25:44;;;;;;;29.77;5.22;;;7.80;99.90;;;;;;5077940;28;20029;-64
2022/01/31 13:28:10;;;;;;;37.15;5.20;;;7.90;99.90;;;;;;5077132;28;20029;-64